sensor_id;sensor_type;location;lat;lon;timestamp;P1;durP1;ratioP1;P2;durP2;ratioP2
30872;SDS011;17579;42.690;2.586;2022-12-07T00:01:05;0.50;;;0.50;;
30872;SDS011;17579;42.690;2.586;2022-12-07T00:03:51;0.50;;;0.50;;
30872;SDS011;17579;42.690;2.586;2022-12-07T00:06:18;0.40;;;0.40;;
30872;SDS011;17579;42.690;2.586;2022-12-07T00:08:45;0.38;;;0.30;;
30872;SDS011;17579;42.690;2.586;2022-12-07T00:11:16;0.43;;;0.43;;
30872;SDS011;17579;42.690;2.586;2022-12-07T00:13:44;1.40;;;0.38;;
30872;SDS011;17579;42.690;2.586;2022-12-07T00:16:12;0.30;;;0.30;;
30872;SDS011;17579;42.690;2.586;2022-12-07T00:18:40;0.40;;;0.40;;
30872;SDS011;17579;42.690;2.586;2022-12-07T00:21:08;0.45;;;0.45;;
30872;SDS011;17579;42.690;2.586;2022-12-07T00:23:39;0.50;;;0.50;;
30872;SDS011;17579;42.690;2.586;2022-12-07T00:26:07;0.47;;;0.47;;
30872;SDS011;17579;42.690;2.586;2022-12-07T00:28:37;0.63;;;0.60;;
30872;SDS011;17579;42.690;2.586;2022-12-07T00:31:07;0.68;;;0.60;;
30872;SDS011;17579;42.690;2.586;2022-12-07T00:33:36;1.17;;;0.80;;
30872;SDS011;17579;42.690;2.586;2022-12-07T00:36:03;0.52;;;0.52;;
30872;SDS011;17579;42.690;2.586;2022-12-07T00:38:32;0.60;;;0.60;;
30872;SDS011;17579;42.690;2.586;2022-12-07T00:40:58;0.40;;;0.40;;
30872;SDS011;17579;42.690;2.586;2022-12-07T00:43:26;0.40;;;0.40;;
30872;SDS011;17579;42.690;2.586;2022-12-07T00:45:52;0.40;;;0.40;;
30872;SDS011;17579;42.690;2.586;2022-12-07T00:48:18;0.40;;;0.40;;
30872;SDS011;17579;42.690;2.586;2022-12-07T00:50:44;0.60;;;0.60;;
30872;SDS011;17579;42.690;2.586;2022-12-07T00:53:09;0.40;;;0.40;;
30872;SDS011;17579;42.690;2.586;2022-12-07T00:55:35;0.70;;;0.50;;
30872;SDS011;17579;42.690;2.586;2022-12-07T00:58:01;1.98;;;0.50;;
30872;SDS011;17579;42.690;2.586;2022-12-07T01:00:28;0.47;;;0.47;;
30872;SDS011;17579;42.690;2.586;2022-12-07T01:02:53;1.77;;;0.40;;
30872;SDS011;17579;42.690;2.586;2022-12-07T01:05:19;0.30;;;0.30;;
30872;SDS011;17579;42.690;2.586;2022-12-07T01:07:45;0.60;;;0.50;;
30872;SDS011;17579;42.690;2.586;2022-12-07T01:10:11;0.40;;;0.40;;
30872;SDS011;17579;42.690;2.586;2022-12-07T01:12:38;0.57;;;0.50;;
30872;SDS011;17579;42.690;2.586;2022-12-07T01:15:04;0.35;;;0.35;;
30872;SDS011;17579;42.690;2.586;2022-12-07T01:17:30;0.70;;;0.70;;
30872;SDS011;17579;42.690;2.586;2022-12-07T01:19:56;0.30;;;0.30;;
30872;SDS011;17579;42.690;2.586;2022-12-07T01:22:22;0.60;;;0.60;;
30872;SDS011;17579;42.690;2.586;2022-12-07T01:24:47;0.55;;;0.55;;
30872;SDS011;17579;42.690;2.586;2022-12-07T01:27:13;0.50;;;0.50;;
30872;SDS011;17579;42.690;2.586;2022-12-07T01:29:39;0.40;;;0.40;;
30872;SDS011;17579;42.690;2.586;2022-12-07T01:32:05;0.40;;;0.40;;
30872;SDS011;17579;42.690;2.586;2022-12-07T01:34:30;0.70;;;0.60;;
30872;SDS011;17579;42.690;2.586;2022-12-07T01:36:56;0.52;;;0.50;;
30872;SDS011;17579;42.690;2.586;2022-12-07T01:39:22;0.60;;;0.60;;
30872;SDS011;17579;42.690;2.586;2022-12-07T01:41:49;0.40;;;0.40;;
30872;SDS011;17579;42.690;2.586;2022-12-07T01:44:24;0.55;;;0.50;;
30872;SDS011;17579;42.690;2.586;2022-12-07T01:47:09;1.15;;;0.50;;
30872;SDS011;17579;42.690;2.586;2022-12-07T01:49:45;0.70;;;0.70;;
30872;SDS011;17579;42.690;2.586;2022-12-07T01:52:16;1.00;;;0.68;;
30872;SDS011;17579;42.690;2.586;2022-12-07T01:54:46;0.47;;;0.47;;
30872;SDS011;17579;42.690;2.586;2022-12-07T01:57:14;0.70;;;0.63;;
30872;SDS011;17579;42.690;2.586;2022-12-07T01:59:43;0.88;;;0.70;;
30872;SDS011;17579;42.690;2.586;2022-12-07T02:02:13;0.75;;;0.75;;
30872;SDS011;17579;42.690;2.586;2022-12-07T02:04:53;0.73;;;0.65;;
30872;SDS011;17579;42.690;2.586;2022-12-07T02:07:21;0.65;;;0.65;;
30872;SDS011;17579;42.690;2.586;2022-12-07T02:09:48;1.17;;;0.60;;
30872;SDS011;17579;42.690;2.586;2022-12-07T02:12:13;0.68;;;0.60;;
30872;SDS011;17579;42.690;2.586;2022-12-07T02:14:39;1.20;;;0.63;;
30872;SDS011;17579;42.690;2.586;2022-12-07T02:17:17;0.65;;;0.63;;
30872;SDS011;17579;42.690;2.586;2022-12-07T02:20:11;0.60;;;0.60;;
30872;SDS011;17579;42.690;2.586;2022-12-07T02:31:35;0.52;;;0.52;;
30872;SDS011;17579;42.690;2.586;2022-12-07T02:34:05;0.70;;;0.40;;
30872;SDS011;17579;42.690;2.586;2022-12-07T02:36:39;0.50;;;0.50;;
30872;SDS011;17579;42.690;2.586;2022-12-07T02:39:17;0.30;;;0.30;;
30872;SDS011;17579;42.690;2.586;2022-12-07T02:41:51;0.43;;;0.43;;
30872;SDS011;17579;42.690;2.586;2022-12-07T02:44:24;0.95;;;0.50;;
30872;SDS011;17579;42.690;2.586;2022-12-07T02:47:01;0.43;;;0.40;;
30872;SDS011;17579;42.690;2.586;2022-12-07T02:49:30;0.40;;;0.40;;
30872;SDS011;17579;42.690;2.586;2022-12-07T02:51:56;0.40;;;0.40;;
30872;SDS011;17579;42.690;2.586;2022-12-07T02:54:22;1.08;;;0.70;;
30872;SDS011;17579;42.690;2.586;2022-12-07T02:57:01;0.52;;;0.50;;
30872;SDS011;17579;42.690;2.586;2022-12-07T03:02:42;0.55;;;0.55;;
30872;SDS011;17579;42.690;2.586;2022-12-07T03:05:40;0.60;;;0.60;;
30872;SDS011;17579;42.690;2.586;2022-12-07T03:10:58;1.52;;;0.50;;
30872;SDS011;17579;42.690;2.586;2022-12-07T03:16:43;1.23;;;0.80;;
30872;SDS011;17579;42.690;2.586;2022-12-07T03:19:18;0.75;;;0.75;;
30872;SDS011;17579;42.690;2.586;2022-12-07T03:21:49;0.85;;;0.52;;
30872;SDS011;17579;42.690;2.586;2022-12-07T03:24:21;1.83;;;1.08;;
30872;SDS011;17579;42.690;2.586;2022-12-07T03:26:53;1.35;;;1.02;;
30872;SDS011;17579;42.690;2.586;2022-12-07T03:29:26;2.17;;;1.20;;
30872;SDS011;17579;42.690;2.586;2022-12-07T03:31:59;1.30;;;1.20;;
30872;SDS011;17579;42.690;2.586;2022-12-07T03:34:48;1.23;;;1.10;;
30872;SDS011;17579;42.690;2.586;2022-12-07T03:37:26;1.13;;;1.00;;
30872;SDS011;17579;42.690;2.586;2022-12-07T03:40:04;1.90;;;1.10;;
30872;SDS011;17579;42.690;2.586;2022-12-07T03:42:44;1.13;;;0.90;;
30872;SDS011;17579;42.690;2.586;2022-12-07T03:45:11;2.00;;;1.10;;
30872;SDS011;17579;42.690;2.586;2022-12-07T03:47:42;0.88;;;0.80;;
30872;SDS011;17579;42.690;2.586;2022-12-07T03:50:25;1.52;;;1.02;;
30872;SDS011;17579;42.690;2.586;2022-12-07T03:52:58;0.93;;;0.80;;
30872;SDS011;17579;42.690;2.586;2022-12-07T03:55:39;1.20;;;0.90;;
30872;SDS011;17579;42.690;2.586;2022-12-07T03:58:09;1.35;;;1.08;;
30872;SDS011;17579;42.690;2.586;2022-12-07T04:00:37;1.17;;;0.80;;
30872;SDS011;17579;42.690;2.586;2022-12-07T04:03:03;0.90;;;0.70;;
30872;SDS011;17579;42.690;2.586;2022-12-07T04:05:29;0.75;;;0.75;;
30872;SDS011;17579;42.690;2.586;2022-12-07T04:07:55;0.65;;;0.63;;
30872;SDS011;17579;42.690;2.586;2022-12-07T04:10:20;0.60;;;0.60;;
30872;SDS011;17579;42.690;2.586;2022-12-07T04:12:46;1.42;;;0.70;;
30872;SDS011;17579;42.690;2.586;2022-12-07T04:15:11;0.52;;;0.47;;
30872;SDS011;17579;42.690;2.586;2022-12-07T04:17:37;0.52;;;0.52;;
30872;SDS011;17579;42.690;2.586;2022-12-07T04:20:04;0.57;;;0.57;;
30872;SDS011;17579;42.690;2.586;2022-12-07T04:22:31;0.88;;;0.68;;
30872;SDS011;17579;42.690;2.586;2022-12-07T04:24:57;0.55;;;0.55;;
30872;SDS011;17579;42.690;2.586;2022-12-07T04:27:22;0.82;;;0.50;;
30872;SDS011;17579;42.690;2.586;2022-12-07T04:29:48;0.80;;;0.50;;
30872;SDS011;17579;42.690;2.586;2022-12-07T04:32:14;0.95;;;0.82;;
30872;SDS011;17579;42.690;2.586;2022-12-07T04:34:39;2.28;;;0.98;;
30872;SDS011;17579;42.690;2.586;2022-12-07T04:37:05;0.98;;;0.50;;
30872;SDS011;17579;42.690;2.586;2022-12-07T04:39:32;1.33;;;0.95;;
30872;SDS011;17579;42.690;2.586;2022-12-07T04:41:59;0.95;;;0.82;;
30872;SDS011;17579;42.690;2.586;2022-12-07T04:44:25;0.60;;;0.60;;
30872;SDS011;17579;42.690;2.586;2022-12-07T04:46:52;0.60;;;0.60;;
30872;SDS011;17579;42.690;2.586;2022-12-07T04:49:19;0.70;;;0.70;;
30872;SDS011;17579;42.690;2.586;2022-12-07T04:51:45;0.77;;;0.77;;
30872;SDS011;17579;42.690;2.586;2022-12-07T04:54:11;1.38;;;0.82;;
30872;SDS011;17579;42.690;2.586;2022-12-07T04:56:37;0.95;;;0.70;;
30872;SDS011;17579;42.690;2.586;2022-12-07T04:59:03;0.80;;;0.80;;
30872;SDS011;17579;42.690;2.586;2022-12-07T05:01:29;1.85;;;0.70;;
30872;SDS011;17579;42.690;2.586;2022-12-07T05:03:56;0.77;;;0.75;;
30872;SDS011;17579;42.690;2.586;2022-12-07T05:06:21;1.33;;;0.93;;
30872;SDS011;17579;42.690;2.586;2022-12-07T05:08:47;0.63;;;0.63;;
30872;SDS011;17579;42.690;2.586;2022-12-07T05:11:13;0.85;;;0.85;;
30872;SDS011;17579;42.690;2.586;2022-12-07T05:14:00;0.80;;;0.80;;
30872;SDS011;17579;42.690;2.586;2022-12-07T05:16:27;2.28;;;0.85;;
30872;SDS011;17579;42.690;2.586;2022-12-07T05:18:53;1.50;;;1.00;;
30872;SDS011;17579;42.690;2.586;2022-12-07T05:21:19;0.75;;;0.75;;
30872;SDS011;17579;42.690;2.586;2022-12-07T05:23:44;0.77;;;0.77;;
30872;SDS011;17579;42.690;2.586;2022-12-07T05:26:10;1.40;;;0.88;;
30872;SDS011;17579;42.690;2.586;2022-12-07T05:28:35;1.83;;;1.08;;
30872;SDS011;17579;42.690;2.586;2022-12-07T05:31:01;0.80;;;0.75;;
30872;SDS011;17579;42.690;2.586;2022-12-07T05:33:27;1.25;;;0.85;;
30872;SDS011;17579;42.690;2.586;2022-12-07T05:35:52;0.80;;;0.80;;
30872;SDS011;17579;42.690;2.586;2022-12-07T05:38:18;0.90;;;0.80;;
30872;SDS011;17579;42.690;2.586;2022-12-07T05:40:43;1.50;;;0.82;;
30872;SDS011;17579;42.690;2.586;2022-12-07T05:43:09;2.05;;;0.93;;
30872;SDS011;17579;42.690;2.586;2022-12-07T05:45:34;0.73;;;0.70;;
30872;SDS011;17579;42.690;2.586;2022-12-07T05:48:00;1.38;;;0.70;;
30872;SDS011;17579;42.690;2.586;2022-12-07T05:50:25;0.50;;;0.50;;
30872;SDS011;17579;42.690;2.586;2022-12-07T05:52:52;0.60;;;0.60;;
30872;SDS011;17579;42.690;2.586;2022-12-07T05:55:18;0.60;;;0.60;;
30872;SDS011;17579;42.690;2.586;2022-12-07T05:57:43;0.75;;;0.68;;
30872;SDS011;17579;42.690;2.586;2022-12-07T06:00:29;0.75;;;0.75;;
30872;SDS011;17579;42.690;2.586;2022-12-07T06:02:54;0.90;;;0.60;;
30872;SDS011;17579;42.690;2.586;2022-12-07T06:05:20;1.45;;;0.68;;
30872;SDS011;17579;42.690;2.586;2022-12-07T06:07:45;0.50;;;0.50;;
30872;SDS011;17579;42.690;2.586;2022-12-07T06:10:11;0.73;;;0.73;;
30872;SDS011;17579;42.690;2.586;2022-12-07T06:12:36;0.85;;;0.68;;
30872;SDS011;17579;42.690;2.586;2022-12-07T06:15:04;1.00;;;0.73;;
30872;SDS011;17579;42.690;2.586;2022-12-07T06:17:31;0.82;;;0.82;;
30872;SDS011;17579;42.690;2.586;2022-12-07T06:19:56;0.70;;;0.63;;
30872;SDS011;17579;42.690;2.586;2022-12-07T06:22:22;0.90;;;0.90;;
30872;SDS011;17579;42.690;2.586;2022-12-07T06:24:48;0.70;;;0.70;;
30872;SDS011;17579;42.690;2.586;2022-12-07T06:27:13;0.77;;;0.73;;
30872;SDS011;17579;42.690;2.586;2022-12-07T06:29:39;0.73;;;0.60;;
30872;SDS011;17579;42.690;2.586;2022-12-07T06:32:04;0.80;;;0.73;;
30872;SDS011;17579;42.690;2.586;2022-12-07T06:34:30;0.70;;;0.70;;
30872;SDS011;17579;42.690;2.586;2022-12-07T06:36:56;2.10;;;1.02;;
30872;SDS011;17579;42.690;2.586;2022-12-07T06:39:22;1.10;;;0.60;;
30872;SDS011;17579;42.690;2.586;2022-12-07T06:41:50;1.10;;;0.80;;
30872;SDS011;17579;42.690;2.586;2022-12-07T06:44:19;0.90;;;0.68;;
30872;SDS011;17579;42.690;2.586;2022-12-07T06:46:46;0.80;;;0.80;;
30872;SDS011;17579;42.690;2.586;2022-12-07T06:49:12;0.80;;;0.70;;
30872;SDS011;17579;42.690;2.586;2022-12-07T06:51:37;2.28;;;1.10;;
30872;SDS011;17579;42.690;2.586;2022-12-07T06:54:06;0.68;;;0.60;;
30872;SDS011;17579;42.690;2.586;2022-12-07T06:56:33;1.00;;;0.90;;
30872;SDS011;17579;42.690;2.586;2022-12-07T06:58:59;0.98;;;0.90;;
30872;SDS011;17579;42.690;2.586;2022-12-07T07:01:24;0.80;;;0.80;;
30872;SDS011;17579;42.690;2.586;2022-12-07T07:03:50;0.60;;;0.60;;
30872;SDS011;17579;42.690;2.586;2022-12-07T07:06:15;0.50;;;0.50;;
30872;SDS011;17579;42.690;2.586;2022-12-07T07:08:41;0.65;;;0.65;;
30872;SDS011;17579;42.690;2.586;2022-12-07T07:11:08;0.60;;;0.60;;
30872;SDS011;17579;42.690;2.586;2022-12-07T07:13:35;1.77;;;1.02;;
30872;SDS011;17579;42.690;2.586;2022-12-07T07:16:00;0.65;;;0.65;;
30872;SDS011;17579;42.690;2.586;2022-12-07T07:18:26;0.75;;;0.70;;
30872;SDS011;17579;42.690;2.586;2022-12-07T07:20:52;1.05;;;0.65;;
30872;SDS011;17579;42.690;2.586;2022-12-07T07:23:17;0.68;;;0.50;;
30872;SDS011;17579;42.690;2.586;2022-12-07T07:25:44;0.45;;;0.45;;
30872;SDS011;17579;42.690;2.586;2022-12-07T07:28:10;1.40;;;0.77;;
30872;SDS011;17579;42.690;2.586;2022-12-07T07:30:36;0.80;;;0.80;;
30872;SDS011;17579;42.690;2.586;2022-12-07T07:33:02;2.70;;;0.70;;
30872;SDS011;17579;42.690;2.586;2022-12-07T07:35:29;0.93;;;0.75;;
30872;SDS011;17579;42.690;2.586;2022-12-07T07:37:55;2.70;;;0.70;;
30872;SDS011;17579;42.690;2.586;2022-12-07T07:40:21;1.75;;;0.82;;
30872;SDS011;17579;42.690;2.586;2022-12-07T07:42:48;0.75;;;0.50;;
30872;SDS011;17579;42.690;2.586;2022-12-07T07:45:16;1.70;;;0.60;;
30872;SDS011;17579;42.690;2.586;2022-12-07T07:47:43;0.80;;;0.80;;
30872;SDS011;17579;42.690;2.586;2022-12-07T07:50:09;1.02;;;0.60;;
30872;SDS011;17579;42.690;2.586;2022-12-07T07:52:34;0.70;;;0.70;;
30872;SDS011;17579;42.690;2.586;2022-12-07T07:55:00;0.63;;;0.63;;
30872;SDS011;17579;42.690;2.586;2022-12-07T07:57:25;0.50;;;0.50;;
30872;SDS011;17579;42.690;2.586;2022-12-07T07:59:52;0.60;;;0.60;;
30872;SDS011;17579;42.690;2.586;2022-12-07T08:02:18;0.52;;;0.52;;
30872;SDS011;17579;42.690;2.586;2022-12-07T08:04:45;0.57;;;0.57;;
30872;SDS011;17579;42.690;2.586;2022-12-07T08:07:11;0.52;;;0.52;;
30872;SDS011;17579;42.690;2.586;2022-12-07T08:09:38;0.63;;;0.60;;
30872;SDS011;17579;42.690;2.586;2022-12-07T08:12:03;0.73;;;0.68;;
30872;SDS011;17579;42.690;2.586;2022-12-07T08:14:29;1.10;;;0.80;;
30872;SDS011;17579;42.690;2.586;2022-12-07T08:16:55;0.60;;;0.55;;
30872;SDS011;17579;42.690;2.586;2022-12-07T08:19:20;0.60;;;0.60;;
30872;SDS011;17579;42.690;2.586;2022-12-07T08:21:46;0.80;;;0.70;;
30872;SDS011;17579;42.690;2.586;2022-12-07T08:24:11;0.50;;;0.50;;
30872;SDS011;17579;42.690;2.586;2022-12-07T08:26:37;1.15;;;0.70;;
30872;SDS011;17579;42.690;2.586;2022-12-07T08:29:03;0.43;;;0.43;;
30872;SDS011;17579;42.690;2.586;2022-12-07T08:31:28;0.75;;;0.68;;
30872;SDS011;17579;42.690;2.586;2022-12-07T08:33:54;0.60;;;0.60;;
30872;SDS011;17579;42.690;2.586;2022-12-07T08:36:20;0.60;;;0.60;;
30872;SDS011;17579;42.690;2.586;2022-12-07T08:38:47;0.68;;;0.68;;
30872;SDS011;17579;42.690;2.586;2022-12-07T08:41:14;0.70;;;0.70;;
30872;SDS011;17579;42.690;2.586;2022-12-07T08:43:40;2.00;;;0.80;;
30872;SDS011;17579;42.690;2.586;2022-12-07T08:46:09;0.70;;;0.70;;
30872;SDS011;17579;42.690;2.586;2022-12-07T08:49:02;1.13;;;0.70;;
30872;SDS011;17579;42.690;2.586;2022-12-07T08:51:31;0.60;;;0.60;;
30872;SDS011;17579;42.690;2.586;2022-12-07T08:53:57;0.70;;;0.60;;
30872;SDS011;17579;42.690;2.586;2022-12-07T08:56:25;0.73;;;0.70;;
30872;SDS011;17579;42.690;2.586;2022-12-07T08:58:51;0.70;;;0.68;;
30872;SDS011;17579;42.690;2.586;2022-12-07T09:01:17;0.65;;;0.63;;
30872;SDS011;17579;42.690;2.586;2022-12-07T09:03:43;0.70;;;0.60;;
30872;SDS011;17579;42.690;2.586;2022-12-07T09:06:08;0.60;;;0.57;;
30872;SDS011;17579;42.690;2.586;2022-12-07T09:08:37;0.95;;;0.80;;
30872;SDS011;17579;42.690;2.586;2022-12-07T09:11:07;0.70;;;0.70;;
30872;SDS011;17579;42.690;2.586;2022-12-07T09:13:33;1.30;;;1.02;;
30872;SDS011;17579;42.690;2.586;2022-12-07T09:15:58;0.85;;;0.70;;
30872;SDS011;17579;42.690;2.586;2022-12-07T09:18:24;1.10;;;0.80;;
30872;SDS011;17579;42.690;2.586;2022-12-07T09:20:50;0.93;;;0.70;;
30872;SDS011;17579;42.690;2.586;2022-12-07T09:23:16;0.85;;;0.80;;
30872;SDS011;17579;42.690;2.586;2022-12-07T09:25:42;0.95;;;0.70;;
30872;SDS011;17579;42.690;2.586;2022-12-07T09:28:08;0.73;;;0.65;;
30872;SDS011;17579;42.690;2.586;2022-12-07T09:30:34;1.88;;;0.80;;
30872;SDS011;17579;42.690;2.586;2022-12-07T09:33:00;0.70;;;0.68;;
30872;SDS011;17579;42.690;2.586;2022-12-07T09:35:25;0.98;;;0.80;;
30872;SDS011;17579;42.690;2.586;2022-12-07T09:37:51;0.80;;;0.80;;
30872;SDS011;17579;42.690;2.586;2022-12-07T09:40:17;0.77;;;0.77;;
30872;SDS011;17579;42.690;2.586;2022-12-07T09:42:47;0.85;;;0.75;;
30872;SDS011;17579;42.690;2.586;2022-12-07T09:45:19;1.10;;;0.75;;
30872;SDS011;17579;42.690;2.586;2022-12-07T09:47:52;0.95;;;0.70;;
30872;SDS011;17579;42.690;2.586;2022-12-07T09:50:20;1.35;;;1.25;;
30872;SDS011;17579;42.690;2.586;2022-12-07T09:52:49;1.50;;;1.10;;
30872;SDS011;17579;42.690;2.586;2022-12-07T09:55:19;1.20;;;0.95;;
30872;SDS011;17579;42.690;2.586;2022-12-07T09:57:52;1.02;;;0.80;;
30872;SDS011;17579;42.690;2.586;2022-12-07T10:00:19;1.00;;;0.90;;
30872;SDS011;17579;42.690;2.586;2022-12-07T10:05:28;1.13;;;1.02;;
30872;SDS011;17579;42.690;2.586;2022-12-07T10:07:58;0.80;;;0.80;;
30872;SDS011;17579;42.690;2.586;2022-12-07T10:10:25;1.77;;;0.80;;
30872;SDS011;17579;42.690;2.586;2022-12-07T10:12:58;1.15;;;0.80;;
30872;SDS011;17579;42.690;2.586;2022-12-07T10:18:16;0.90;;;0.80;;
30872;SDS011;17579;42.690;2.586;2022-12-07T10:20:46;0.93;;;0.85;;
30872;SDS011;17579;42.690;2.586;2022-12-07T10:23:16;1.10;;;1.00;;
30872;SDS011;17579;42.690;2.586;2022-12-07T10:25:43;0.88;;;0.80;;
30872;SDS011;17579;42.690;2.586;2022-12-07T10:28:12;0.85;;;0.85;;
30872;SDS011;17579;42.690;2.586;2022-12-07T10:38:50;1.27;;;0.70;;
30872;SDS011;17579;42.690;2.586;2022-12-07T10:41:18;1.13;;;1.02;;
30872;SDS011;17579;42.690;2.586;2022-12-07T10:43:49;1.90;;;1.60;;
30872;SDS011;17579;42.690;2.586;2022-12-07T10:49:20;1.33;;;0.85;;
30872;SDS011;17579;42.690;2.586;2022-12-07T10:52:26;0.50;;;0.50;;
30872;SDS011;17579;42.690;2.586;2022-12-07T11:01:02;0.50;;;0.50;;
30872;SDS011;17579;42.690;2.586;2022-12-07T11:03:41;0.68;;;0.68;;
30872;SDS011;17579;42.690;2.586;2022-12-07T11:06:24;0.45;;;0.45;;
30872;SDS011;17579;42.690;2.586;2022-12-07T11:11:59;0.60;;;0.60;;
30872;SDS011;17579;42.690;2.586;2022-12-07T11:14:36;0.35;;;0.35;;
30872;SDS011;17579;42.690;2.586;2022-12-07T11:26:21;0.45;;;0.43;;
30872;SDS011;17579;42.690;2.586;2022-12-07T11:29:19;0.50;;;0.50;;
30872;SDS011;17579;42.690;2.586;2022-12-07T11:38:07;0.50;;;0.50;;
30872;SDS011;17579;42.690;2.586;2022-12-07T11:40:37;0.52;;;0.50;;
30872;SDS011;17579;42.690;2.586;2022-12-07T11:43:13;0.50;;;0.50;;
30872;SDS011;17579;42.690;2.586;2022-12-07T11:46:00;1.05;;;0.68;;
30872;SDS011;17579;42.690;2.586;2022-12-07T11:48:38;0.60;;;0.60;;
30872;SDS011;17579;42.690;2.586;2022-12-07T11:51:09;0.50;;;0.50;;
30872;SDS011;17579;42.690;2.586;2022-12-07T11:56:22;0.80;;;0.80;;
30872;SDS011;17579;42.690;2.586;2022-12-07T11:58:55;0.60;;;0.57;;
30872;SDS011;17579;42.690;2.586;2022-12-07T12:04:35;0.65;;;0.63;;
30872;SDS011;17579;42.690;2.586;2022-12-07T12:07:24;0.52;;;0.52;;
30872;SDS011;17579;42.690;2.586;2022-12-07T12:09:59;0.63;;;0.63;;
30872;SDS011;17579;42.690;2.586;2022-12-07T12:12:39;0.70;;;0.70;;
30872;SDS011;17579;42.690;2.586;2022-12-07T12:15:35;0.65;;;0.65;;
30872;SDS011;17579;42.690;2.586;2022-12-07T12:21:19;0.95;;;0.75;;
30872;SDS011;17579;42.690;2.586;2022-12-07T12:23:56;0.70;;;0.70;;
30872;SDS011;17579;42.690;2.586;2022-12-07T12:26:26;0.98;;;0.90;;
30872;SDS011;17579;42.690;2.586;2022-12-07T12:29:05;0.75;;;0.70;;
30872;SDS011;17579;42.690;2.586;2022-12-07T12:31:46;0.70;;;0.70;;
30872;SDS011;17579;42.690;2.586;2022-12-07T12:34:38;0.85;;;0.85;;
30872;SDS011;17579;42.690;2.586;2022-12-07T12:43:26;0.93;;;0.85;;
30872;SDS011;17579;42.690;2.586;2022-12-07T12:55:00;0.80;;;0.80;;
30872;SDS011;17579;42.690;2.586;2022-12-07T12:57:37;0.80;;;0.80;;
30872;SDS011;17579;42.690;2.586;2022-12-07T13:00:15;1.10;;;1.00;;
30872;SDS011;17579;42.690;2.586;2022-12-07T13:02:53;1.75;;;0.95;;
30872;SDS011;17579;42.690;2.586;2022-12-07T13:05:21;0.82;;;0.82;;
30872;SDS011;17579;42.690;2.586;2022-12-07T13:10:39;1.70;;;1.08;;
30872;SDS011;17579;42.690;2.586;2022-12-07T13:18:53;1.05;;;0.90;;
30872;SDS011;17579;42.690;2.586;2022-12-07T13:24:06;0.90;;;0.90;;
30872;SDS011;17579;42.690;2.586;2022-12-07T13:26:38;1.35;;;0.85;;
30872;SDS011;17579;42.690;2.586;2022-12-07T13:31:56;1.17;;;0.90;;
30872;SDS011;17579;42.690;2.586;2022-12-07T13:34:31;1.23;;;0.95;;
30872;SDS011;17579;42.690;2.586;2022-12-07T13:37:01;2.10;;;0.90;;
30872;SDS011;17579;42.690;2.586;2022-12-07T13:39:34;1.85;;;1.20;;
30872;SDS011;17579;42.690;2.586;2022-12-07T13:42:20;1.67;;;0.90;;
30872;SDS011;17579;42.690;2.586;2022-12-07T13:44:52;0.80;;;0.80;;
30872;SDS011;17579;42.690;2.586;2022-12-07T13:52:58;1.10;;;1.00;;
30872;SDS011;17579;42.690;2.586;2022-12-07T13:55:26;1.10;;;0.98;;
30872;SDS011;17579;42.690;2.586;2022-12-07T13:57:53;1.58;;;0.80;;
30872;SDS011;17579;42.690;2.586;2022-12-07T14:00:20;2.13;;;1.15;;
30872;SDS011;17579;42.690;2.586;2022-12-07T14:02:59;0.80;;;0.80;;
30872;SDS011;17579;42.690;2.586;2022-12-07T14:05:36;1.02;;;0.90;;
30872;SDS011;17579;42.690;2.586;2022-12-07T14:08:04;0.95;;;0.93;;
30872;SDS011;17579;42.690;2.586;2022-12-07T14:19:06;0.80;;;0.80;;
30872;SDS011;17579;42.690;2.586;2022-12-07T14:22:06;1.50;;;0.70;;
30872;SDS011;17579;42.690;2.586;2022-12-07T14:24:41;1.38;;;0.75;;
30872;SDS011;17579;42.690;2.586;2022-12-07T14:27:16;1.35;;;1.00;;
30872;SDS011;17579;42.690;2.586;2022-12-07T14:29:46;1.40;;;1.17;;
30872;SDS011;17579;42.690;2.586;2022-12-07T14:37:36;0.77;;;0.77;;
30872;SDS011;17579;42.690;2.586;2022-12-07T14:40:03;0.88;;;0.88;;
30872;SDS011;17579;42.690;2.586;2022-12-07T14:42:30;0.80;;;0.80;;
30872;SDS011;17579;42.690;2.586;2022-12-07T14:44:56;0.80;;;0.80;;
30872;SDS011;17579;42.690;2.586;2022-12-07T14:47:23;0.80;;;0.80;;
30872;SDS011;17579;42.690;2.586;2022-12-07T14:49:50;0.95;;;0.95;;
30872;SDS011;17579;42.690;2.586;2022-12-07T14:52:23;1.15;;;1.05;;
30872;SDS011;17579;42.690;2.586;2022-12-07T14:54:52;1.45;;;0.98;;
30872;SDS011;17579;42.690;2.586;2022-12-07T14:57:17;2.47;;;0.90;;
30872;SDS011;17579;42.690;2.586;2022-12-07T14:59:43;1.45;;;1.10;;
30872;SDS011;17579;42.690;2.586;2022-12-07T15:02:09;0.85;;;0.85;;
30872;SDS011;17579;42.690;2.586;2022-12-07T15:04:37;0.90;;;0.80;;
30872;SDS011;17579;42.690;2.586;2022-12-07T15:07:03;1.33;;;1.10;;
30872;SDS011;17579;42.690;2.586;2022-12-07T15:09:31;0.85;;;0.85;;
30872;SDS011;17579;42.690;2.586;2022-12-07T15:11:56;0.88;;;0.88;;
30872;SDS011;17579;42.690;2.586;2022-12-07T15:14:22;1.20;;;0.98;;
30872;SDS011;17579;42.690;2.586;2022-12-07T15:16:47;1.70;;;1.00;;
30872;SDS011;17579;42.690;2.586;2022-12-07T15:19:20;3.20;;;2.35;;
30872;SDS011;17579;42.690;2.586;2022-12-07T15:21:53;6.55;;;4.05;;
30872;SDS011;17579;42.690;2.586;2022-12-07T15:24:18;6.25;;;4.47;;
30872;SDS011;17579;42.690;2.586;2022-12-07T15:26:45;7.20;;;4.22;;
30872;SDS011;17579;42.690;2.586;2022-12-07T15:29:11;6.15;;;4.35;;
30872;SDS011;17579;42.690;2.586;2022-12-07T15:31:37;5.05;;;3.58;;
30872;SDS011;17579;42.690;2.586;2022-12-07T15:34:04;5.72;;;3.88;;
30872;SDS011;17579;42.690;2.586;2022-12-07T15:36:30;4.07;;;3.50;;
30872;SDS011;17579;42.690;2.586;2022-12-07T15:38:58;5.45;;;3.92;;
30872;SDS011;17579;42.690;2.586;2022-12-07T15:41:23;6.07;;;4.47;;
30872;SDS011;17579;42.690;2.586;2022-12-07T15:43:49;6.85;;;5.18;;
30872;SDS011;17579;42.690;2.586;2022-12-07T15:46:31;9.10;;;4.35;;
30872;SDS011;17579;42.690;2.586;2022-12-07T15:49:15;8.20;;;4.28;;
30872;SDS011;17579;42.690;2.586;2022-12-07T15:51:42;7.35;;;4.28;;
30872;SDS011;17579;42.690;2.586;2022-12-07T15:54:16;5.10;;;4.03;;
30872;SDS011;17579;42.690;2.586;2022-12-07T15:56:45;5.78;;;4.45;;
30872;SDS011;17579;42.690;2.586;2022-12-07T15:59:10;8.05;;;5.32;;
30872;SDS011;17579;42.690;2.586;2022-12-07T16:01:36;6.57;;;4.72;;
30872;SDS011;17579;42.690;2.586;2022-12-07T16:04:01;5.53;;;4.60;;
30872;SDS011;17579;42.690;2.586;2022-12-07T16:06:27;7.72;;;6.10;;
30872;SDS011;17579;42.690;2.586;2022-12-07T16:08:52;8.38;;;5.72;;
30872;SDS011;17579;42.690;2.586;2022-12-07T16:11:18;10.30;;;7.07;;
30872;SDS011;17579;42.690;2.586;2022-12-07T16:13:43;9.05;;;7.32;;
30872;SDS011;17579;42.690;2.586;2022-12-07T16:16:13;10.25;;;7.28;;
30872;SDS011;17579;42.690;2.586;2022-12-07T16:18:41;11.77;;;7.03;;
30872;SDS011;17579;42.690;2.586;2022-12-07T16:21:07;10.07;;;7.53;;
30872;SDS011;17579;42.690;2.586;2022-12-07T16:23:33;9.32;;;6.57;;
30872;SDS011;17579;42.690;2.586;2022-12-07T16:28:48;9.27;;;6.63;;
30872;SDS011;17579;42.690;2.586;2022-12-07T16:31:16;7.22;;;5.80;;
30872;SDS011;17579;42.690;2.586;2022-12-07T16:33:44;6.45;;;5.55;;
30872;SDS011;17579;42.690;2.586;2022-12-07T16:36:10;6.72;;;5.50;;
30872;SDS011;17579;42.690;2.586;2022-12-07T16:38:38;8.32;;;6.00;;
30872;SDS011;17579;42.690;2.586;2022-12-07T16:41:04;11.65;;;5.75;;
30872;SDS011;17579;42.690;2.586;2022-12-07T16:43:31;6.43;;;5.25;;
30872;SDS011;17579;42.690;2.586;2022-12-07T16:45:57;6.78;;;5.10;;
30872;SDS011;17579;42.690;2.586;2022-12-07T16:48:23;7.03;;;5.63;;
30872;SDS011;17579;42.690;2.586;2022-12-07T16:50:48;8.55;;;5.10;;
30872;SDS011;17579;42.690;2.586;2022-12-07T16:53:14;6.45;;;5.18;;
30872;SDS011;17579;42.690;2.586;2022-12-07T16:55:44;8.32;;;5.68;;
30872;SDS011;17579;42.690;2.586;2022-12-07T16:58:12;8.95;;;5.63;;
30872;SDS011;17579;42.690;2.586;2022-12-07T17:00:39;8.68;;;4.93;;